Terminal Aerodrome Forecast
Issued by NWS

Home | Current Version | Previous Version | Text Only | Print | Product List | Glossary On
Versions: 1 2 3 4 5 6 7 8 9 10 11 12 13 14
000
FTUS46 KOTX 231729
TAFMWH
TAF
KMWH 231729Z 2318/2418 24010KT P6SM SCT080 BKN130
     FM232000 20012G18KT P6SM VCSH BKN060 OVC100
     FM240600 05008KT P6SM -RA SCT025 OVC040
     FM240800 18010KT P6SM -RA BKN025 OVC040
     FM241200 20010KT P6SM VCSH SCT040 OVC100=

USA.gov is the U.S. government's official web portal to all federal, state and local government web resources and services.